sensor_id;sensor_type;location;lat;lon;timestamp;pressure;altitude;pressure_sealevel;temperature;humidity
54546;BME280;40444;45.184;9.850;2023-01-30T00:01:29;101683.88;;;1.22;100.00
54546;BME280;40444;45.184;9.850;2023-01-30T00:03:58;101677.75;;;1.21;100.00
54546;BME280;40444;45.184;9.850;2023-01-30T00:06:26;101675.19;;;1.18;100.00
54546;BME280;40444;45.184;9.850;2023-01-30T00:08:54;101678.75;;;1.17;100.00
54546;BME280;40444;45.184;9.850;2023-01-30T00:11:23;101684.94;;;1.16;100.00
54546;BME280;40444;45.184;9.850;2023-01-30T00:13:51;101673.56;;;1.14;100.00
54546;BME280;40444;45.184;9.850;2023-01-30T00:16:19;101670.13;;;1.12;100.00
54546;BME280;40444;45.184;9.850;2023-01-30T00:18:47;101674.56;;;1.10;100.00
54546;BME280;40444;45.184;9.850;2023-01-30T00:21:15;101666.72;;;1.09;100.00
54546;BME280;40444;45.184;9.850;2023-01-30T00:23:43;101669.38;;;1.07;100.00
54546;BME280;40444;45.184;9.850;2023-01-30T00:26:12;101665.94;;;1.05;100.00
54546;BME280;40444;45.184;9.850;2023-01-30T00:28:42;101664.22;;;1.04;100.00
54546;BME280;40444;45.184;9.850;2023-01-30T00:31:10;101662.50;;;1.03;100.00
54546;BME280;40444;45.184;9.850;2023-01-30T00:33:39;101659.91;;;1.01;100.00
54546;BME280;40444;45.184;9.850;2023-01-30T00:36:09;101658.97;;;1.04;100.00
54546;BME280;40444;45.184;9.850;2023-01-30T00:38:38;101654.53;;;1.05;100.00
54546;BME280;40444;45.184;9.850;2023-01-30T00:41:06;101651.81;;;1.08;100.00
54546;BME280;40444;45.184;9.850;2023-01-30T00:43:35;101658.81;;;1.09;100.00
54546;BME280;40444;45.184;9.850;2023-01-30T00:46:27;101646.47;;;1.09;100.00
54546;BME280;40444;45.184;9.850;2023-01-30T00:49:15;101650.88;;;1.09;100.00
54546;BME280;40444;45.184;9.850;2023-01-30T00:51:44;101645.69;;;1.06;100.00
54546;BME280;40444;45.184;9.850;2023-01-30T00:54:12;101649.25;;;1.05;100.00
54546;BME280;40444;45.184;9.850;2023-01-30T00:56:41;101649.31;;;1.03;100.00
54546;BME280;40444;45.184;9.850;2023-01-30T00:59:09;101646.72;;;1.01;100.00
54546;BME280;40444;45.184;9.850;2023-01-30T01:01:37;101651.22;;;0.98;100.00
54546;BME280;40444;45.184;9.850;2023-01-30T01:04:06;101648.50;;;1.01;100.00
54546;BME280;40444;45.184;9.850;2023-01-30T01:06:37;101645.91;;;0.99;100.00
54546;BME280;40444;45.184;9.850;2023-01-30T01:09:05;101645.84;;;1.01;100.00
54546;BME280;40444;45.184;9.850;2023-01-30T01:11:34;101651.13;;;1.01;100.00
54546;BME280;40444;45.184;9.850;2023-01-30T01:14:04;101651.19;;;0.99;100.00
54546;BME280;40444;45.184;9.850;2023-01-30T01:16:33;101639.81;;;0.97;100.00
54546;BME280;40444;45.184;9.850;2023-01-30T01:19:02;101641.66;;;0.95;100.00
54546;BME280;40444;45.184;9.850;2023-01-30T01:21:31;101638.19;;;0.93;100.00
54546;BME280;40444;45.184;9.850;2023-01-30T01:23:59;101637.31;;;0.93;100.00
54546;BME280;40444;45.184;9.850;2023-01-30T01:26:28;101635.69;;;0.89;100.00
54546;BME280;40444;45.184;9.850;2023-01-30T01:28:57;101639.34;;;0.85;100.00
54546;BME280;40444;45.184;9.850;2023-01-30T01:31:26;101634.19;;;0.82;100.00
54546;BME280;40444;45.184;9.850;2023-01-30T01:33:56;101632.56;;;0.78;100.00
54546;BME280;40444;45.184;9.850;2023-01-30T01:36:25;101635.25;;;0.76;100.00
54546;BME280;40444;45.184;9.850;2023-01-30T01:39:15;101625.59;;;0.75;100.00
54546;BME280;40444;45.184;9.850;2023-01-30T01:41:44;101618.59;;;0.74;100.00
54546;BME280;40444;45.184;9.850;2023-01-30T01:44:13;101617.69;;;0.75;100.00
54546;BME280;40444;45.184;9.850;2023-01-30T01:46:58;101604.53;;;0.73;100.00
54546;BME280;40444;45.184;9.850;2023-01-30T01:49:29;101611.59;;;0.73;100.00
54546;BME280;40444;45.184;9.850;2023-01-30T01:52:11;101608.97;;;0.73;100.00
54546;BME280;40444;45.184;9.850;2023-01-30T01:54:46;101609.75;;;0.75;100.00
54546;BME280;40444;45.184;9.850;2023-01-30T01:57:41;101607.03;;;0.78;100.00
54546;BME280;40444;45.184;9.850;2023-01-30T02:00:11;101606.09;;;0.81;100.00
54546;BME280;40444;45.184;9.850;2023-01-30T02:02:42;101606.03;;;0.82;100.00
54546;BME280;40444;45.184;9.850;2023-01-30T02:05:15;101604.31;;;0.81;100.00
54546;BME280;40444;45.184;9.850;2023-01-30T02:10:21;101596.41;;;0.80;100.00
54546;BME280;40444;45.184;9.850;2023-01-30T02:12:51;101590.44;;;0.74;100.00
54546;BME280;40444;45.184;9.850;2023-01-30T02:15:21;101592.28;;;0.72;100.00
54546;BME280;40444;45.184;9.850;2023-01-30T02:17:49;101595.06;;;0.68;100.00
54546;BME280;40444;45.184;9.850;2023-01-30T02:36:58;101582.63;;;0.45;100.00
54546;BME280;40444;45.184;9.850;2023-01-30T02:42:28;101581.94;;;0.38;100.00
54546;BME280;40444;45.184;9.850;2023-01-30T02:47:45;101582.09;;;0.34;100.00
54546;BME280;40444;45.184;9.850;2023-01-30T02:50:23;101578.69;;;0.30;100.00
54546;BME280;40444;45.184;9.850;2023-01-30T02:52:53;101583.09;;;0.30;100.00
54546;BME280;40444;45.184;9.850;2023-01-30T02:55:26;101574.53;;;0.23;100.00
54546;BME280;40444;45.184;9.850;2023-01-30T02:57:56;101575.47;;;0.20;100.00
54546;BME280;40444;45.184;9.850;2023-01-30T03:00:54;101565.84;;;0.19;100.00
54546;BME280;40444;45.184;9.850;2023-01-30T03:03:34;101568.47;;;0.19;100.00
54546;BME280;40444;45.184;9.850;2023-01-30T03:14:25;101552.66;;;0.19;100.00
54546;BME280;40444;45.184;9.850;2023-01-30T03:16:57;101542.94;;;0.21;100.00
54546;BME280;40444;45.184;9.850;2023-01-30T03:19:27;101535.13;;;0.18;100.00
54546;BME280;40444;45.184;9.850;2023-01-30T03:21:59;101532.44;;;0.20;100.00
54546;BME280;40444;45.184;9.850;2023-01-30T03:24:28;101523.72;;;0.18;100.00
54546;BME280;40444;45.184;9.850;2023-01-30T03:27:10;101519.41;;;0.15;100.00
54546;BME280;40444;45.184;9.850;2023-01-30T03:29:40;101505.41;;;0.13;100.00
54546;BME280;40444;45.184;9.850;2023-01-30T03:32:08;101503.66;;;0.14;100.00
54546;BME280;40444;45.184;9.850;2023-01-30T03:34:36;101495.75;;;0.14;100.00
54546;BME280;40444;45.184;9.850;2023-01-30T03:37:04;101494.94;;;0.12;100.00
54546;BME280;40444;45.184;9.850;2023-01-30T03:39:35;101502.88;;;0.10;100.00
54546;BME280;40444;45.184;9.850;2023-01-30T03:42:05;101497.63;;;0.10;100.00
54546;BME280;40444;45.184;9.850;2023-01-30T03:44:33;101492.34;;;0.10;100.00
54546;BME280;40444;45.184;9.850;2023-01-30T03:47:01;101490.66;;;0.08;100.00
54546;BME280;40444;45.184;9.850;2023-01-30T03:49:29;101489.88;;;0.06;100.00
54546;BME280;40444;45.184;9.850;2023-01-30T03:51:58;101489.94;;;0.03;100.00
54546;BME280;40444;45.184;9.850;2023-01-30T03:54:27;101491.78;;;0.01;100.00
54546;BME280;40444;45.184;9.850;2023-01-30T03:56:55;101491.88;;;-0.03;100.00
54546;BME280;40444;45.184;9.850;2023-01-30T03:59:25;101487.53;;;-0.05;100.00
54546;BME280;40444;45.184;9.850;2023-01-30T04:02:01;101490.19;;;-0.05;100.00
54546;BME280;40444;45.184;9.850;2023-01-30T04:04:30;101489.44;;;-0.09;100.00
54546;BME280;40444;45.184;9.850;2023-01-30T04:06:59;101486.81;;;-0.09;100.00
54546;BME280;40444;45.184;9.850;2023-01-30T04:09:28;101486.84;;;-0.10;100.00
54546;BME280;40444;45.184;9.850;2023-01-30T04:11:57;101481.53;;;-0.09;100.00
54546;BME280;40444;45.184;9.850;2023-01-30T04:14:29;101472.66;;;-0.06;100.00
54546;BME280;40444;45.184;9.850;2023-01-30T04:17:27;101471.75;;;-0.05;100.00
54546;BME280;40444;45.184;9.850;2023-01-30T04:20:15;101463.69;;;-0.01;100.00
54546;BME280;40444;45.184;9.850;2023-01-30T04:22:49;101461.03;;;0.01;100.00
54546;BME280;40444;45.184;9.850;2023-01-30T04:25:17;101450.34;;;0.06;100.00
54546;BME280;40444;45.184;9.850;2023-01-30T04:27:47;101445.88;;;0.08;100.00
54546;BME280;40444;45.184;9.850;2023-01-30T04:30:19;101447.59;;;0.09;100.00
54546;BME280;40444;45.184;9.850;2023-01-30T04:32:51;101444.09;;;0.08;100.00
54546;BME280;40444;45.184;9.850;2023-01-30T04:35:19;101442.38;;;0.07;100.00
54546;BME280;40444;45.184;9.850;2023-01-30T04:37:47;101442.44;;;0.06;100.00
54546;BME280;40444;45.184;9.850;2023-01-30T04:40:20;101439.88;;;0.03;100.00
54546;BME280;40444;45.184;9.850;2023-01-30T04:42:48;101443.44;;;0.02;100.00
54546;BME280;40444;45.184;9.850;2023-01-30T04:45:46;101444.38;;;-0.01;100.00
54546;BME280;40444;45.184;9.850;2023-01-30T04:48:17;101434.84;;;-0.05;100.00
54546;BME280;40444;45.184;9.850;2023-01-30T04:50:48;101434.00;;;-0.06;100.00
54546;BME280;40444;45.184;9.850;2023-01-30T04:53:18;101438.41;;;-0.06;100.00
54546;BME280;40444;45.184;9.850;2023-01-30T04:55:47;101429.78;;;-0.11;100.00
54546;BME280;40444;45.184;9.850;2023-01-30T04:58:17;101431.50;;;-0.10;100.00
54546;BME280;40444;45.184;9.850;2023-01-30T05:00:48;101427.16;;;-0.11;100.00
54546;BME280;40444;45.184;9.850;2023-01-30T05:03:18;101429.00;;;-0.13;100.00
54546;BME280;40444;45.184;9.850;2023-01-30T05:05:47;101435.16;;;-0.14;100.00
54546;BME280;40444;45.184;9.850;2023-01-30T05:08:16;101442.19;;;-0.15;100.00
54546;BME280;40444;45.184;9.850;2023-01-30T05:10:45;101445.69;;;-0.14;100.00
54546;BME280;40444;45.184;9.850;2023-01-30T05:13:13;101447.47;;;-0.15;100.00
54546;BME280;40444;45.184;9.850;2023-01-30T05:15:41;101449.25;;;-0.15;100.00
54546;BME280;40444;45.184;9.850;2023-01-30T05:18:12;101448.44;;;-0.17;100.00
54546;BME280;40444;45.184;9.850;2023-01-30T05:20:41;101437.06;;;-0.19;100.00
54546;BME280;40444;45.184;9.850;2023-01-30T05:23:09;101436.31;;;-0.23;100.00
54546;BME280;40444;45.184;9.850;2023-01-30T05:25:37;101441.72;;;-0.28;100.00
54546;BME280;40444;45.184;9.850;2023-01-30T05:28:06;101444.47;;;-0.31;100.00
54546;BME280;40444;45.184;9.850;2023-01-30T05:30:35;101452.44;;;-0.34;100.00
54546;BME280;40444;45.184;9.850;2023-01-30T05:33:04;101450.75;;;-0.36;100.00
54546;BME280;40444;45.184;9.850;2023-01-30T05:35:32;101451.75;;;-0.39;100.00
54546;BME280;40444;45.184;9.850;2023-01-30T05:38:01;101444.75;;;-0.40;100.00
54546;BME280;40444;45.184;9.850;2023-01-30T05:40:30;101443.00;;;-0.41;100.00
54546;BME280;40444;45.184;9.850;2023-01-30T05:42:59;101454.53;;;-0.45;100.00
54546;BME280;40444;45.184;9.850;2023-01-30T05:45:27;101455.44;;;-0.46;100.00
54546;BME280;40444;45.184;9.850;2023-01-30T05:47:55;101456.44;;;-0.48;100.00
54546;BME280;40444;45.184;9.850;2023-01-30T05:50:28;101454.72;;;-0.51;100.00
54546;BME280;40444;45.184;9.850;2023-01-30T05:52:57;101461.78;;;-0.52;100.00
54546;BME280;40444;45.184;9.850;2023-01-30T05:55:25;101460.91;;;-0.52;100.00
54546;BME280;40444;45.184;9.850;2023-01-30T05:57:53;101467.09;;;-0.53;100.00
54546;BME280;40444;45.184;9.850;2023-01-30T06:00:22;101459.28;;;-0.56;100.00
54546;BME280;40444;45.184;9.850;2023-01-30T06:02:50;101470.00;;;-0.62;100.00
54546;BME280;40444;45.184;9.850;2023-01-30T06:05:19;101472.63;;;-0.62;100.00
54546;BME280;40444;45.184;9.850;2023-01-30T06:07:47;101472.63;;;-0.62;100.00
54546;BME280;40444;45.184;9.850;2023-01-30T06:10:16;101481.38;;;-0.62;100.00
54546;BME280;40444;45.184;9.850;2023-01-30T06:12:45;101478.75;;;-0.62;100.00
54546;BME280;40444;45.184;9.850;2023-01-30T06:15:13;101469.94;;;-0.61;100.00
54546;BME280;40444;45.184;9.850;2023-01-30T17:04:18;100837.66;;;5.57;100.00
54546;BME280;40444;45.184;9.850;2023-01-30T17:06:51;100848.59;;;5.67;100.00
54546;BME280;40444;45.184;9.850;2023-01-30T17:09:34;100835.41;;;5.78;100.00
54546;BME280;40444;45.184;9.850;2023-01-30T17:17:40;100834.34;;;5.95;100.00
54546;BME280;40444;45.184;9.850;2023-01-30T17:20:10;100839.66;;;5.95;100.00
54546;BME280;40444;45.184;9.850;2023-01-30T17:22:41;100827.22;;;5.96;100.00
54546;BME280;40444;45.184;9.850;2023-01-30T17:25:25;100825.28;;;5.98;100.00
54546;BME280;40444;45.184;9.850;2023-01-30T17:27:57;100826.38;;;5.95;100.00
54546;BME280;40444;45.184;9.850;2023-01-30T17:30:25;100828.09;;;5.82;100.00
54546;BME280;40444;45.184;9.850;2023-01-30T17:32:53;100824.59;;;5.81;100.00
54546;BME280;40444;45.184;9.850;2023-01-30T17:35:22;100826.41;;;5.81;100.00
54546;BME280;40444;45.184;9.850;2023-01-30T17:37:50;100828.09;;;5.82;100.00
54546;BME280;40444;45.184;9.850;2023-01-30T17:40:35;100837.78;;;5.83;100.00
54546;BME280;40444;45.184;9.850;2023-01-30T17:43:04;100837.03;;;5.81;100.00
54546;BME280;40444;45.184;9.850;2023-01-30T17:45:34;100833.81;;;5.76;100.00
54546;BME280;40444;45.184;9.850;2023-01-30T17:48:03;100830.59;;;5.71;100.00
54546;BME280;40444;45.184;9.850;2023-01-30T17:50:31;100828.91;;;5.70;100.00
54546;BME280;40444;45.184;9.850;2023-01-30T17:52:59;100827.38;;;5.66;100.00
54546;BME280;40444;45.184;9.850;2023-01-30T17:55:29;100834.63;;;5.64;100.00
54546;BME280;40444;45.184;9.850;2023-01-30T17:57:57;100831.13;;;5.63;100.00
54546;BME280;40444;45.184;9.850;2023-01-30T18:00:26;100838.31;;;5.61;100.00
54546;BME280;40444;45.184;9.850;2023-01-30T18:02:55;100838.63;;;5.56;100.00
54546;BME280;40444;45.184;9.850;2023-01-30T18:05:24;100844.34;;;5.50;100.00
54546;BME280;40444;45.184;9.850;2023-01-30T18:07:52;100855.34;;;5.44;100.00
54546;BME280;40444;45.184;9.850;2023-01-30T18:10:20;100851.59;;;5.34;100.00
54546;BME280;40444;45.184;9.850;2023-01-30T18:12:51;100857.59;;;5.23;100.00
54546;BME280;40444;45.184;9.850;2023-01-30T18:15:20;100852.66;;;5.17;100.00
54546;BME280;40444;45.184;9.850;2023-01-30T18:17:49;100858.25;;;5.13;100.00
54546;BME280;40444;45.184;9.850;2023-01-30T18:20:18;100854.97;;;5.09;100.00
54546;BME280;40444;45.184;9.850;2023-01-30T18:22:47;100866.78;;;5.03;100.00
54546;BME280;40444;45.184;9.850;2023-01-30T18:25:16;100865.50;;;4.96;100.00
54546;BME280;40444;45.184;9.850;2023-01-30T18:27:45;100863.13;;;4.92;100.00
54546;BME280;40444;45.184;9.850;2023-01-30T18:30:15;100858.09;;;4.87;100.00
54546;BME280;40444;45.184;9.850;2023-01-30T18:32:46;100858.56;;;4.79;100.00
54546;BME280;40444;45.184;9.850;2023-01-30T18:35:21;100861.59;;;4.73;100.00
54546;BME280;40444;45.184;9.850;2023-01-30T18:37:50;100861.78;;;4.70;100.00
54546;BME280;40444;45.184;9.850;2023-01-30T18:40:19;100863.59;;;4.70;100.00
54546;BME280;40444;45.184;9.850;2023-01-30T18:42:48;100861.00;;;4.68;100.00
54546;BME280;40444;45.184;9.850;2023-01-30T18:45:16;100846.69;;;4.71;100.00
54546;BME280;40444;45.184;9.850;2023-01-30T18:47:45;100841.28;;;4.72;100.00
54546;BME280;40444;45.184;9.850;2023-01-30T18:50:13;100835.06;;;4.73;100.00
54546;BME280;40444;45.184;9.850;2023-01-30T18:52:41;100841.22;;;4.74;100.00
54546;BME280;40444;45.184;9.850;2023-01-30T18:55:09;100838.84;;;4.69;100.00
54546;BME280;40444;45.184;9.850;2023-01-30T18:57:38;100846.41;;;4.61;100.00
54546;BME280;40444;45.184;9.850;2023-01-30T19:00:07;100840.88;;;4.50;100.00
54546;BME280;40444;45.184;9.850;2023-01-30T19:02:35;100843.94;;;4.44;100.00
54546;BME280;40444;45.184;9.850;2023-01-30T19:05:03;100846.97;;;4.38;100.00
54546;BME280;40444;45.184;9.850;2023-01-30T19:07:33;100845.50;;;4.32;100.00
54546;BME280;40444;45.184;9.850;2023-01-30T19:10:02;100857.75;;;4.35;100.00
54546;BME280;40444;45.184;9.850;2023-01-30T19:12:31;100849.69;;;4.36;100.00
54546;BME280;40444;45.184;9.850;2023-01-30T19:15:18;100847.13;;;4.35;100.00
54546;BME280;40444;45.184;9.850;2023-01-30T19:17:46;100847.47;;;4.28;100.00
54546;BME280;40444;45.184;9.850;2023-01-30T19:20:14;100851.94;;;4.28;100.00
54546;BME280;40444;45.184;9.850;2023-01-30T19:22:43;100845.03;;;4.25;100.00
54546;BME280;40444;45.184;9.850;2023-01-30T19:25:12;100842.88;;;4.02;100.00
54546;BME280;40444;45.184;9.850;2023-01-30T19:27:40;100830.28;;;4.05;100.00
54546;BME280;40444;45.184;9.850;2023-01-30T19:30:11;100833.97;;;4.03;100.00
54546;BME280;40444;45.184;9.850;2023-01-30T19:32:40;100832.53;;;3.97;100.00
54546;BME280;40444;45.184;9.850;2023-01-30T19:35:09;100845.28;;;3.91;100.00
54546;BME280;40444;45.184;9.850;2023-01-30T19:37:38;100848.63;;;3.78;100.00
54546;BME280;40444;45.184;9.850;2023-01-30T19:40:08;100860.28;;;3.76;100.00
54546;BME280;40444;45.184;9.850;2023-01-30T19:42:38;100861.81;;;3.64;100.00
54546;BME280;40444;45.184;9.850;2023-01-30T19:45:11;100871.22;;;3.38;100.00
54546;BME280;40444;45.184;9.850;2023-01-30T19:47:39;100873.09;;;3.20;100.00
54546;BME280;40444;45.184;9.850;2023-01-30T19:50:08;100866.50;;;3.12;100.00
54546;BME280;40444;45.184;9.850;2023-01-30T19:52:36;100871.66;;;3.15;100.00
54546;BME280;40444;45.184;9.850;2023-01-30T19:55:06;100878.47;;;3.19;100.00
54546;BME280;40444;45.184;9.850;2023-01-30T19:57:34;100887.97;;;3.23;100.00
54546;BME280;40444;45.184;9.850;2023-01-30T20:00:03;100884.38;;;3.24;100.00
54546;BME280;40444;45.184;9.850;2023-01-30T20:02:32;100887.72;;;3.27;100.00
54546;BME280;40444;45.184;9.850;2023-01-30T20:05:01;100893.97;;;3.26;100.00
54546;BME280;40444;45.184;9.850;2023-01-30T20:07:33;100901.97;;;3.25;100.00
54546;BME280;40444;45.184;9.850;2023-01-30T20:10:06;100907.63;;;3.19;100.00
54546;BME280;40444;45.184;9.850;2023-01-30T20:12:35;100910.34;;;3.17;100.00
54546;BME280;40444;45.184;9.850;2023-01-30T20:15:04;100908.63;;;3.16;100.00
54546;BME280;40444;45.184;9.850;2023-01-30T20:17:33;100900.69;;;3.16;100.00
54546;BME280;40444;45.184;9.850;2023-01-30T20:20:02;100900.69;;;3.16;100.00
54546;BME280;40444;45.184;9.850;2023-01-30T20:22:32;100883.38;;;2.93;100.00
54546;BME280;40444;45.184;9.850;2023-01-30T20:25:00;100886.44;;;2.86;100.00
54546;BME280;40444;45.184;9.850;2023-01-30T20:27:29;100883.03;;;2.84;100.00
54546;BME280;40444;45.184;9.850;2023-01-30T20:29:58;100888.56;;;2.79;100.00
54546;BME280;40444;45.184;9.850;2023-01-30T20:32:26;100899.75;;;2.84;100.00
54546;BME280;40444;45.184;9.850;2023-01-30T20:34:56;100902.53;;;2.81;100.00
54546;BME280;40444;45.184;9.850;2023-01-30T20:37:25;100911.63;;;2.77;100.00
54546;BME280;40444;45.184;9.850;2023-01-30T20:39:55;100911.75;;;2.74;100.00
54546;BME280;40444;45.184;9.850;2023-01-30T20:42:24;100912.63;;;2.57;100.00
54546;BME280;40444;45.184;9.850;2023-01-30T20:44:52;100916.25;;;2.72;100.00
54546;BME280;40444;45.184;9.850;2023-01-30T20:47:21;100915.16;;;2.76;100.00
54546;BME280;40444;45.184;9.850;2023-01-30T20:49:50;100914.16;;;2.78;100.00
54546;BME280;40444;45.184;9.850;2023-01-30T20:52:19;100916.13;;;2.75;100.00
54546;BME280;40444;45.184;9.850;2023-01-30T20:54:47;100929.81;;;2.66;100.00
54546;BME280;40444;45.184;9.850;2023-01-30T20:57:15;100934.88;;;2.53;100.00
54546;BME280;40444;45.184;9.850;2023-01-30T20:59:44;100932.78;;;2.42;100.00
54546;BME280;40444;45.184;9.850;2023-01-30T21:02:13;100930.97;;;2.25;100.00
54546;BME280;40444;45.184;9.850;2023-01-30T21:04:42;100929.81;;;2.31;100.00
54546;BME280;40444;45.184;9.850;2023-01-30T21:07:11;100934.97;;;2.34;100.00
54546;BME280;40444;45.184;9.850;2023-01-30T21:09:39;100942.81;;;2.36;100.00
54546;BME280;40444;45.184;9.850;2023-01-30T21:12:07;100950.03;;;2.32;100.00
54546;BME280;40444;45.184;9.850;2023-01-30T21:14:36;100964.97;;;2.33;100.00
54546;BME280;40444;45.184;9.850;2023-01-30T21:17:06;100968.47;;;2.34;100.00
54546;BME280;40444;45.184;9.850;2023-01-30T21:19:36;100966.69;;;2.34;100.00
54546;BME280;40444;45.184;9.850;2023-01-30T21:22:08;100963.19;;;2.34;100.00
54546;BME280;40444;45.184;9.850;2023-01-30T21:24:38;100971.13;;;2.34;100.00
54546;BME280;40444;45.184;9.850;2023-01-30T21:27:19;100980.84;;;2.33;100.00
54546;BME280;40444;45.184;9.850;2023-01-30T21:29:51;100974.00;;;2.29;100.00
54546;BME280;40444;45.184;9.850;2023-01-30T21:32:21;100974.72;;;2.33;100.00
54546;BME280;40444;45.184;9.850;2023-01-30T21:34:50;100980.84;;;2.33;100.00
54546;BME280;40444;45.184;9.850;2023-01-30T21:37:18;101006.19;;;2.20;100.00
54546;BME280;40444;45.184;9.850;2023-01-30T21:40:07;101009.94;;;2.14;100.00
54546;BME280;40444;45.184;9.850;2023-01-30T21:43:08;101018.81;;;2.13;100.00
54546;BME280;40444;45.184;9.850;2023-01-30T21:45:43;101022.19;;;2.17;100.00
54546;BME280;40444;45.184;9.850;2023-01-30T21:48:12;101033.19;;;2.08;100.00
54546;BME280;40444;45.184;9.850;2023-01-30T21:50:40;101039.53;;;2.03;100.00
54546;BME280;40444;45.184;9.850;2023-01-30T21:53:08;101038.63;;;2.05;100.00
54546;BME280;40444;45.184;9.850;2023-01-30T21:55:37;101040.13;;;2.10;100.00
54546;BME280;40444;45.184;9.850;2023-01-30T21:58:05;101044.47;;;2.11;100.00
54546;BME280;40444;45.184;9.850;2023-01-30T22:00:34;101048.75;;;2.14;100.00
54546;BME280;40444;45.184;9.850;2023-01-30T22:03:03;101047.69;;;2.18;100.00
54546;BME280;40444;45.184;9.850;2023-01-30T22:05:34;101049.69;;;1.94;100.00
54546;BME280;40444;45.184;9.850;2023-01-30T22:08:03;101056.97;;;2.08;100.00
54546;BME280;40444;45.184;9.850;2023-01-30T22:10:35;101068.28;;;2.11;100.00
54546;BME280;40444;45.184;9.850;2023-01-30T22:13:04;101083.06;;;2.15;100.00
54546;BME280;40444;45.184;9.850;2023-01-30T22:15:32;101083.91;;;2.16;100.00
54546;BME280;40444;45.184;9.850;2023-01-30T22:18:01;101090.28;;;2.12;100.00
54546;BME280;40444;45.184;9.850;2023-01-30T22:20:30;101084.78;;;2.16;100.00
54546;BME280;40444;45.184;9.850;2023-01-30T22:22:59;101102.41;;;2.16;100.00
54546;BME280;40444;45.184;9.850;2023-01-30T22:25:27;101107.75;;;2.14;100.00
54546;BME280;40444;45.184;9.850;2023-01-30T22:27:55;101123.78;;;2.11;100.00
54546;BME280;40444;45.184;9.850;2023-01-30T22:30:24;101125.78;;;2.06;100.00
54546;BME280;40444;45.184;9.850;2023-01-30T22:32:53;101122.28;;;2.06;100.00
54546;BME280;40444;45.184;9.850;2023-01-30T22:35:23;101127.84;;;1.99;100.00
54546;BME280;40444;45.184;9.850;2023-01-30T22:37:54;101129.84;;;1.94;100.00
54546;BME280;40444;45.184;9.850;2023-01-30T22:40:22;101139.16;;;1.83;100.00
54546;BME280;40444;45.184;9.850;2023-01-30T22:42:51;101139.38;;;1.78;100.00
54546;BME280;40444;45.184;9.850;2023-01-30T22:45:19;101135.88;;;1.77;100.00
54546;BME280;40444;45.184;9.850;2023-01-30T22:47:48;101148.94;;;1.81;100.00
54546;BME280;40444;45.184;9.850;2023-01-30T22:50:16;101147.25;;;1.80;100.00
54546;BME280;40444;45.184;9.850;2023-01-30T22:52:44;101149.72;;;1.83;100.00
54546;BME280;40444;45.184;9.850;2023-01-30T22:55:13;101157.81;;;1.80;100.00
54546;BME280;40444;45.184;9.850;2023-01-30T22:57:41;101163.28;;;1.14;100.00
54546;BME280;40444;45.184;9.850;2023-01-30T23:00:10;101165.59;;;1.21;100.00
54546;BME280;40444;45.184;9.850;2023-01-30T23:02:38;101179.88;;;1.16;100.00
54546;BME280;40444;45.184;9.850;2023-01-30T23:05:07;101179.78;;;1.19;100.00
54546;BME280;40444;45.184;9.850;2023-01-30T23:07:35;101176.09;;;1.23;100.00
54546;BME280;40444;45.184;9.850;2023-01-30T23:10:04;101173.78;;;1.36;100.00
54546;BME280;40444;45.184;9.850;2023-01-30T23:12:33;101181.41;;;1.43;100.00
54546;BME280;40444;45.184;9.850;2023-01-30T23:15:20;101181.91;;;1.51;100.00
54546;BME280;40444;45.184;9.850;2023-01-30T23:17:48;101182.59;;;1.57;100.00
54546;BME280;40444;45.184;9.850;2023-01-30T23:20:35;101175.97;;;1.67;100.00
54546;BME280;40444;45.184;9.850;2023-01-30T23:23:04;101181.06;;;1.71;100.00
54546;BME280;40444;45.184;9.850;2023-01-30T23:25:38;101195.31;;;1.26;100.00
54546;BME280;40444;45.184;9.850;2023-01-30T23:28:07;101209.09;;;1.33;100.00
54546;BME280;40444;45.184;9.850;2023-01-30T23:30:39;101216.22;;;1.31;100.00
54546;BME280;40444;45.184;9.850;2023-01-30T23:33:07;101223.50;;;1.26;100.00
54546;BME280;40444;45.184;9.850;2023-01-30T23:35:35;101226.13;;;1.26;100.00
54546;BME280;40444;45.184;9.850;2023-01-30T23:38:04;101217.19;;;1.29;100.00
54546;BME280;40444;45.184;9.850;2023-01-30T23:40:48;101220.41;;;1.37;100.00
54546;BME280;40444;45.184;9.850;2023-01-30T23:43:18;101218.50;;;1.40;100.00
54546;BME280;40444;45.184;9.850;2023-01-30T23:45:47;101230.84;;;1.40;100.00
54546;BME280;40444;45.184;9.850;2023-01-30T23:48:15;101222.75;;;1.43;100.00
54546;BME280;40444;45.184;9.850;2023-01-30T23:50:43;101220.81;;;1.48;100.00
54546;BME280;40444;45.184;9.850;2023-01-30T23:53:12;101228.47;;;1.54;100.00
54546;BME280;40444;45.184;9.850;2023-01-30T23:55:49;101228.00;;;1.44;100.00
54546;BME280;40444;45.184;9.850;2023-01-30T23:58:18;101238.38;;;1.49;100.00
